Leandra — V2EB4 — position and weather

sailwx.info

Track history (hours):
 
Tides and Currents Weather Stations Pressure Air Temp Water Temp Dewpoint Dewpoint Depression Visibility Wind Speed Wind Dir Waves Ship Positions

Leandra

Last reported at 2015-Jun-22 15:10 UTC. Time now 2015-Jul-05 07:49 UTC.
Position N 22°04' E 114°05'.
Warning: this ship's position is 12 days out of date.

Length 146 m; draft 5.2 m.

Type: Cargo ship. MMSI: 305375000.

Date/timePositionNaut miles runAvg speedWind from/ knotsBaromVisibWave heightAir tempDewpointWater temp
2015-Jun-22 15:10N 22°04' E 114°05'8 1.7
2015-Jun-22 10:23N 22°10' E 114°10'20 3.0
2015-Jun-22 03:33N 22°24' E 113°54'5 4.7
2015-Jun-22 02:33N 22°28' E 113°52'1 0.0
2015-Jun-20 00:28N 22°29' E 113°52'17 8.9
2015-Jun-19 22:33N 22°18' E 114°06'1210.4
2015-Jun-19 21:24N 22°08' E 114°13'3 2.5
2015-Jun-19 20:20N 22°05' E 114°13'0 0.0
2015-Jun-19 19:23N 22°05' E 114°13'0 0.0
2015-Jun-19 02:24N 22°06' E 114°13'0 0.0
2015-Jun-18 21:18N 22°06' E 114°13'2 0.9
2015-Jun-18 19:32N 22°07' E 114°14'9 9.2
2015-Jun-18 18:32N 22°09' E 114°24'14810.4
2015-Jun-18 04:17N 22°51' E 116°57'6610.9
2015-Jun-17 22:10N 23°29' E 117°56'1911.9
2015-Jun-17 20:33N 23°42' E 118°11'1211.7
2015-Jun-17 19:33N 23°49' E 118°21'9710.3
2015-Jun-17 10:12N 24°53' E 119°41'6 8.5
2015-Jun-17 09:32N 24°57' E 119°46'8 8.1
2015-Jun-17 08:33N 25°02' E 119°52'9 8.5
2015-Jun-17 07:33N 25°09' E 119°58'10 8.9
2015-Jun-17 06:28N 25°16' E 120°05'  
2015-Jun-12 19:28N 34°15' E 128°46'1212.3
2015-Jun-12 18:29N 34°03' E 128°44'1111.5
2015-Jun-12 17:33N 33°52' E 128°41'1212.2
2015-Jun-12 16:33N 33°40' E 128°39'1212.0
2015-Jun-12 15:33N 33°28' E 128°37'  
Track history (hours):
 
Tides and Currents Weather Stations Pressure Air Temp Water Temp Dewpoint Dewpoint Depression Visibility Wind Speed Wind Dir Waves Ship Positions

Leandra

Last reported at 2015-Jun-22 15:10 UTC. Time now 2015-Jul-05 07:49 UTC.
Position N 22°04' E 114°05'.
Warning: this ship's position is 12 days out of date.

Length 146 m; draft 5.2 m.

Type: Cargo ship. MMSI: 305375000.

Date/timePositionNaut miles runAvg speedWind from/ knotsBaromVisibWave heightAir tempDewpointWater temp
2015-Jun-22 15:10N 22°04' E 114°05'8 1.7
2015-Jun-22 10:23N 22°10' E 114°10'20 3.0
2015-Jun-22 03:33N 22°24' E 113°54'5 4.7
2015-Jun-22 02:33N 22°28' E 113°52'1 0.0
2015-Jun-20 00:28N 22°29' E 113°52'17 8.9
2015-Jun-19 22:33N 22°18' E 114°06'1210.4
2015-Jun-19 21:24N 22°08' E 114°13'3 2.5
2015-Jun-19 20:20N 22°05' E 114°13'0 0.0
2015-Jun-19 19:23N 22°05' E 114°13'0 0.0
2015-Jun-19 02:24N 22°06' E 114°13'0 0.0
2015-Jun-18 21:18N 22°06' E 114°13'2 0.9
2015-Jun-18 19:32N 22°07' E 114°14'9 9.2
2015-Jun-18 18:32N 22°09' E 114°24'14810.4
2015-Jun-18 04:17N 22°51' E 116°57'6610.9
2015-Jun-17 22:10N 23°29' E 117°56'1911.9
2015-Jun-17 20:33N 23°42' E 118°11'1211.7
2015-Jun-17 19:33N 23°49' E 118°21'9710.3
2015-Jun-17 10:12N 24°53' E 119°41'6 8.5
2015-Jun-17 09:32N 24°57' E 119°46'8 8.1
2015-Jun-17 08:33N 25°02' E 119°52'9 8.5
2015-Jun-17 07:33N 25°09' E 119°58'10 8.9
2015-Jun-17 06:28N 25°16' E 120°05'  
2015-Jun-12 19:28N 34°15' E 128°46'1212.3
2015-Jun-12 18:29N 34°03' E 128°44'1111.5
2015-Jun-12 17:33N 33°52' E 128°41'1212.2
2015-Jun-12 16:33N 33°40' E 128°39'1212.0
2015-Jun-12 15:33N 33°28' E 128°37'  

Dump ship's entire track history